createdAt,value
2019-01-14T00:00:01.625Z,59.2
2019-01-14T00:00:51.891Z,59.2
2019-01-14T00:01:41.946Z,59.2
2019-01-14T00:02:31.729Z,59.1
2019-01-14T00:03:21.788Z,59.1
2019-01-14T00:04:12.118Z,59.1
2019-01-14T00:05:02.299Z,59.1
2019-01-14T00:05:52.231Z,59.1
2019-01-14T00:06:42.291Z,59.1
2019-01-14T00:07:32.397Z,59.1
2019-01-14T00:08:22.136Z,59.1
2019-01-14T00:09:12.478Z,59.1
2019-01-14T00:10:02.515Z,59
2019-01-14T00:10:52.569Z,59.1
2019-01-14T00:11:42.633Z,59
2019-01-14T00:12:32.400Z,59
2019-01-14T00:13:22.468Z,59
2019-01-14T00:14:12.790Z,59
2019-01-14T00:15:02.593Z,58.9
2019-01-14T00:15:52.643Z,58.9
2019-01-14T00:16:43.038Z,58.9
2019-01-14T00:17:32.752Z,58.9
2019-01-14T00:18:23.090Z,58.9
2019-01-14T00:19:13.135Z,58.9
2019-01-14T00:20:02.482Z,58.9
2019-01-14T00:20:52.965Z,58.9
2019-01-14T00:21:43.026Z,58.9
2019-01-14T00:22:32.523Z,58.8
2019-01-14T00:23:23.480Z,58.8
2019-01-14T00:24:13.495Z,58.8
2019-01-14T00:25:03.649Z,58.8
2019-01-14T00:25:53.594Z,58.8
2019-01-14T00:26:43.645Z,58.8
2019-01-14T00:27:33.745Z,58.8
2019-01-14T00:28:23.752Z,58.8
2019-01-14T00:29:13.820Z,58.8
2019-01-14T00:30:03.878Z,58.7
2019-01-14T00:30:53.932Z,58.7
2019-01-14T00:31:43.974Z,58.7
2019-01-14T00:32:34.816Z,58.7
2019-01-14T00:33:24.114Z,58.7
2019-01-14T00:34:14.166Z,58.7
2019-01-14T00:35:04.224Z,58.6
2019-01-14T00:35:54.001Z,58.6
2019-01-14T00:36:44.041Z,58.6
2019-01-14T00:37:34.382Z,58.6
2019-01-14T00:43:24.228Z,58.5
2019-01-14T00:44:14.559Z,58.5
2019-01-14T00:45:04.641Z,58.5
2019-01-14T00:45:54.953Z,58.5
2019-01-14T00:46:44.999Z,58.5
2019-01-14T00:47:36.687Z,58.4
2019-01-14T00:48:25.096Z,58.4
2019-01-14T00:49:15.189Z,58.4
2019-01-14T00:50:04.954Z,58.4
2019-01-14T00:50:54.996Z,58.4
2019-01-14T00:51:45.073Z,58.4
2019-01-14T00:52:35.395Z,58.4
2019-01-14T00:53:25.477Z,58.4
2019-01-14T00:54:15.524Z,58.4
2019-01-14T00:55:05.293Z,58.3
2019-01-14T00:55:55.621Z,58.3
2019-01-14T00:56:45.677Z,58.3
2019-01-14T00:57:35.730Z,58.3
2019-01-14T00:58:25.520Z,58.3
2019-01-14T00:59:15.282Z,58.3
2019-01-14T01:00:05.640Z,58.3
2019-01-14T01:00:55.957Z,58.3
2019-01-14T01:01:46.011Z,58.3
2019-01-14T01:02:36.085Z,58.2
2019-01-14T01:03:25.850Z,58.2
2019-01-14T01:04:16.202Z,58.2
2019-01-14T01:05:05.995Z,58.2
2019-01-14T01:05:56.347Z,58.1
2019-01-14T01:06:46.084Z,58.1
2019-01-14T01:07:35.855Z,58.1
2019-01-14T01:08:26.254Z,58.1
2019-01-14T01:09:15.957Z,58.1
2019-01-14T01:10:06.632Z,58.1
2019-01-14T01:10:56.096Z,58.1
2019-01-14T01:11:46.142Z,58.1
2019-01-14T01:12:36.463Z,58.1
2019-01-14T01:13:26.599Z,58.1
2019-01-14T01:14:16.872Z,58.1
2019-01-14T01:15:06.924Z,58
2019-01-14T01:15:56.694Z,58
2019-01-14T01:16:47.027Z,58
2019-01-14T01:17:37.102Z,58
2019-01-14T01:18:27.133Z,57.9
2019-01-14T01:19:16.904Z,57.9
2019-01-14T01:20:06.416Z,57.9
2019-01-14T01:20:57.024Z,57.9
2019-01-14T01:21:47.084Z,57.9
2019-01-14T01:22:37.416Z,57.9
2019-01-14T01:23:27.213Z,57.9
2019-01-14T01:24:17.258Z,57.9
2019-01-14T01:25:07.586Z,57.9
2019-01-14T01:25:57.081Z,57.8
2019-01-14T01:26:47.751Z,57.8
2019-01-14T01:27:37.486Z,57.8
2019-01-14T01:28:27.818Z,57.8
2019-01-14T01:29:17.866Z,57.8
2019-01-14T01:34:17.986Z,57.7
2019-01-14T01:35:08.263Z,57.7
2019-01-14T01:35:57.778Z,57.7
2019-01-14T01:36:48.383Z,57.7
2019-01-14T01:37:38.438Z,57.7
2019-01-14T01:38:28.247Z,57.6
2019-01-14T01:39:18.277Z,57.6
2019-01-14T01:40:08.320Z,57.6
2019-01-14T01:40:58.433Z,57.6
2019-01-14T01:41:48.510Z,57.6
2019-01-14T01:42:38.499Z,57.6
2019-01-14T01:43:28.555Z,57.6
2019-01-14T01:44:18.882Z,57.6
2019-01-14T01:45:08.940Z,57.6
2019-01-14T01:45:59.047Z,57.5
2019-01-14T01:46:48.500Z,57.5
2019-01-14T01:47:38.832Z,57.5
2019-01-14T01:48:28.892Z,57.5
2019-01-14T01:49:18.950Z,57.5
2019-01-14T01:50:08.727Z,57.4
2019-01-14T01:50:59.339Z,57.4
2019-01-14T01:51:49.394Z,57.4
2019-01-14T01:52:39.524Z,57.4
2019-01-14T01:53:29.509Z,57.4
2019-01-14T01:54:19.019Z,57.4
2019-01-14T01:55:09.079Z,57.4
2019-01-14T03:08:47.667Z,59.4
2019-01-14T03:09:37.727Z,59.7
2019-01-14T03:10:27.794Z,59.9
2019-01-14T03:11:17.571Z,60.1
2019-01-14T03:12:07.121Z,60.3
2019-01-14T03:12:58.041Z,60.4
2019-01-14T03:13:47.742Z,60.6
2019-01-14T03:14:38.114Z,60.8
2019-01-14T03:15:28.119Z,60.9
2019-01-14T03:16:18.169Z,61.1
2019-01-14T03:17:08.302Z,61.1
2019-01-14T03:17:58.014Z,61.4
2019-01-14T03:18:48.386Z,61.6
2019-01-14T03:19:38.136Z,61.7
2019-01-14T03:20:28.464Z,61.7
2019-01-14T03:21:18.516Z,61.9
2019-01-14T03:22:08.611Z,62.1
2019-01-14T03:22:58.352Z,62.2
2019-01-14T03:23:48.726Z,62.2
2019-01-14T03:24:38.733Z,62.3
2019-01-14T03:25:28.568Z,62.5
2019-01-14T03:26:18.871Z,62.6
2019-01-14T03:27:08.928Z,62.7
2019-01-14T03:27:58.970Z,62.8
2019-01-14T03:28:48.738Z,63
2019-01-14T03:29:39.083Z,63.1
2019-01-14T03:30:29.234Z,63.1
2019-01-14T03:31:19.247Z,63.2
2019-01-14T03:32:09.324Z,63.4
2019-01-14T03:32:58.863Z,63.5
2019-01-14T03:33:49.368Z,63.5
2019-01-14T03:34:39.427Z,63.6
2019-01-14T03:35:29.191Z,63.8
2019-01-14T03:36:19.250Z,63.9
2019-01-14T03:37:09.701Z,63.9
2019-01-14T03:37:59.645Z,63.9
2019-01-14T03:38:49.692Z,64.1
2019-01-14T03:39:39.483Z,64.3
2019-01-14T03:40:29.517Z,64.4
2019-01-14T03:41:19.610Z,64.6
2019-01-14T03:42:09.986Z,64.6
2019-01-14T03:42:59.700Z,64.6
2019-01-14T03:43:49.778Z,64.7
2019-01-14T03:44:39.547Z,64.8
2019-01-14T03:45:30.162Z,64.8
2019-01-14T03:46:20.187Z,64.8
2019-01-14T03:47:10.312Z,64.8
2019-01-14T03:48:00.304Z,64.9
2019-01-14T03:48:50.119Z,64.9
2019-01-14T03:49:39.869Z,64.9
2019-01-14T03:50:29.767Z,64.9
2019-01-14T03:51:20.252Z,64.9
2019-01-14T03:52:10.603Z,64.9
2019-01-14T03:53:00.197Z,64.9
2019-01-14T03:53:50.713Z,64.9
2019-01-14T03:54:40.751Z,64.8
2019-01-14T03:55:30.331Z,64.9
2019-01-14T03:56:20.887Z,64.8
2019-01-14T03:57:10.954Z,64.8
2019-01-14T03:58:00.214Z,64.8
2019-01-14T03:58:50.494Z,64.8
2019-01-14T03:59:40.581Z,64.8
2019-01-14T04:00:31.169Z,64.8
2019-01-14T04:01:20.929Z,64.8
2019-01-14T04:02:11.286Z,64.8
2019-01-14T04:03:01.262Z,64.8
2019-01-14T04:03:51.433Z,64.8
2019-01-14T04:04:41.189Z,64.8
2019-01-14T04:05:31.528Z,64.8
2019-01-14T04:06:21.285Z,64.8
2019-01-14T04:07:17.651Z,64.7
2019-01-14T04:08:01.372Z,64.7
2019-01-14T04:08:51.748Z,64.7
2019-01-14T04:09:41.784Z,64.7
2019-01-14T04:10:31.573Z,64.7
2019-01-14T04:11:21.352Z,64.6
2019-01-14T04:12:11.957Z,64.7
2019-01-14T04:13:01.716Z,64.6
2019-01-14T04:13:51.857Z,64.6
2019-01-14T04:14:41.298Z,64.6
2019-01-14T04:15:31.908Z,64.6
2019-01-14T04:16:22.223Z,64.6
2019-01-14T04:17:12.295Z,64.6
2019-01-14T04:18:02.357Z,64.6
2019-01-14T04:18:52.127Z,64.6
2019-01-14T04:19:42.202Z,64.6
2019-01-14T04:20:32.230Z,64.6
2019-01-14T04:21:22.366Z,64.6
2019-01-14T04:22:12.347Z,64.6
2019-01-14T04:23:04.137Z,64.5
2019-01-14T04:23:52.472Z,64.5
2019-01-14T04:24:42.807Z,64.5
2019-01-14T04:25:32.827Z,64.5
2019-01-14T04:26:22.369Z,64.5
2019-01-14T04:27:12.977Z,64.4
2019-01-14T04:28:03.058Z,64.4
2019-01-14T04:28:53.106Z,64.4
2019-01-14T04:29:43.133Z,64.4
2019-01-14T04:30:32.926Z,64.4
2019-01-14T04:31:23.032Z,64.4
2019-01-14T04:32:13.035Z,64.4
2019-01-14T04:33:03.074Z,64.4
2019-01-14T04:33:53.444Z,64.4
2019-01-14T04:34:43.495Z,64.4
2019-01-14T04:35:33.236Z,64.4
2019-01-14T04:36:23.345Z,64.4
2019-01-14T04:37:21.287Z,64.4
2019-01-14T04:38:03.424Z,64.3
2019-01-14T04:38:53.742Z,64.3
2019-01-14T04:39:43.794Z,64.3
2019-01-14T04:40:33.612Z,64.3
2019-01-14T04:41:23.939Z,64.3
2019-01-14T04:42:13.707Z,64.3
2019-01-14T04:43:03.813Z,64.3
2019-01-14T04:43:53.534Z,64.3
2019-01-14T04:44:44.131Z,64.3
2019-01-14T04:45:33.946Z,64.3
2019-01-14T04:46:23.706Z,64.3
2019-01-14T04:47:14.031Z,64.3
2019-01-14T04:48:04.398Z,64.3
2019-01-14T04:48:54.423Z,64.2
2019-01-14T04:49:44.503Z,64.2
2019-01-14T04:50:33.821Z,64.2
2019-01-14T04:51:24.321Z,64.2
2019-01-14T04:52:14.384Z,64.2
2019-01-14T04:53:04.186Z,64.2
2019-01-14T04:53:54.487Z,64.2
2019-01-14T04:54:44.807Z,64.2
2019-01-14T04:55:34.038Z,64.1
2019-01-14T04:56:24.928Z,64.1
2019-01-14T04:57:14.188Z,64.1
2019-01-14T04:58:04.792Z,64.1
2019-01-14T04:58:55.093Z,64.1
2019-01-14T04:59:44.608Z,64.1
2019-01-14T05:00:34.938Z,64.1
2019-01-14T05:01:25.297Z,64.1
2019-01-14T05:02:15.417Z,64.1
2019-01-14T05:03:05.377Z,64.1
2019-01-14T05:03:55.172Z,64.1
2019-01-14T05:04:45.218Z,64.1
2019-01-14T05:05:35.289Z,64.1
2019-01-14T05:06:25.125Z,64.1
2019-01-14T05:07:15.087Z,64.1
2019-01-14T05:08:05.471Z,64
2019-01-14T05:08:55.780Z,64
2019-01-14T05:09:45.314Z,64
2019-01-14T05:10:35.383Z,64
2019-01-14T05:11:25.935Z,64
2019-01-14T05:12:15.765Z,64
2019-01-14T05:13:05.799Z,64
2019-01-14T05:13:56.094Z,63.9
2019-01-14T05:14:45.641Z,63.9
2019-01-14T05:15:37.682Z,63.9
2019-01-14T05:16:26.281Z,63.9
2019-01-14T05:17:16.069Z,63.9
2019-01-14T05:18:06.109Z,63.9
2019-01-14T05:18:56.160Z,63.9
2019-01-14T05:19:46.490Z,63.9
2019-01-14T05:20:36.553Z,63.9
2019-01-14T05:21:26.608Z,63.9
2019-01-14T05:22:16.696Z,63.9
2019-01-14T05:23:06.176Z,63.9
2019-01-14T05:23:56.520Z,63.9
2019-01-14T05:24:46.556Z,63.8
2019-01-14T05:25:36.639Z,63.8
2019-01-14T05:26:26.946Z,63.8
2019-01-14T05:27:17.017Z,63.8
2019-01-14T05:28:06.616Z,63.8
2019-01-14T05:28:56.547Z,63.8
2019-01-14T05:29:46.877Z,63.8
2019-01-14T05:30:36.946Z,63.8
2019-01-14T05:31:27.010Z,63.8
2019-01-14T05:32:17.343Z,63.8
2019-01-14T05:33:07.247Z,63.8
2019-01-14T05:33:57.162Z,63.8
2019-01-14T05:34:47.504Z,63.8
2019-01-14T05:35:37.301Z,63.7
2019-01-14T05:36:27.399Z,63.8
2019-01-14T05:37:17.414Z,63.7
2019-01-14T05:38:07.468Z,63.7
2019-01-14T05:38:57.791Z,63.7
2019-01-14T05:39:47.838Z,63.7
2019-01-14T05:40:37.741Z,63.7
2019-01-14T05:41:27.946Z,63.6
2019-01-14T05:42:17.740Z,63.6
2019-01-14T05:43:08.046Z,63.6
2019-01-14T05:43:57.563Z,63.6
2019-01-14T05:44:47.916Z,63.6
2019-01-14T05:45:37.973Z,63.6
2019-01-14T05:46:28.269Z,63.6
2019-01-14T05:47:17.846Z,63.6
2019-01-14T05:48:08.504Z,63.6
2019-01-14T05:48:58.448Z,63.6
2019-01-14T05:49:48.230Z,63.6
2019-01-14T05:50:38.370Z,63.6
2019-01-14T05:51:28.333Z,63.6
2019-01-14T05:52:18.413Z,63.6
2019-01-14T05:53:08.745Z,63.6
2019-01-14T05:53:58.798Z,63.5
2019-01-14T05:54:48.570Z,63.5
2019-01-14T05:55:38.908Z,63.5
2019-01-14T05:56:28.673Z,63.5
2019-01-14T05:57:18.765Z,63.5
2019-01-14T05:58:09.095Z,63.4
2019-01-14T05:58:59.117Z,63.4
2019-01-14T05:59:49.237Z,63.4
2019-01-14T06:00:38.972Z,63.4
2019-01-14T06:01:29.035Z,63.4
2019-01-14T06:02:19.058Z,63.4
2019-01-14T06:03:09.425Z,63.4
2019-01-14T06:03:59.489Z,63.4
2019-01-14T06:04:49.222Z,63.4
2019-01-14T06:06:47.497Z,63.4
2019-01-14T06:07:44.661Z,63.4
2019-01-14T06:08:27.700Z,63.4
2019-01-14T06:09:17.442Z,63.3
2019-01-14T06:10:07.759Z,63.3
2019-01-14T06:10:57.799Z,63.3
2019-01-14T06:11:47.854Z,63.3
2019-01-14T06:12:37.928Z,63.3
2019-01-14T06:13:27.994Z,63.3
2019-01-14T06:14:18.007Z,63.3
2019-01-14T06:15:08.117Z,63.3
2019-01-14T06:15:57.672Z,63.3
2019-01-14T06:16:47.697Z,63.3
2019-01-14T06:17:37.751Z,63.3
2019-01-14T06:18:27.814Z,63.3
2019-01-14T06:19:17.854Z,63.3
2019-01-14T06:20:07.911Z,63.2
2019-01-14T06:20:57.691Z,63.3
2019-01-14T06:21:48.043Z,63.2
2019-01-14T06:22:37.856Z,63.2
2019-01-14T06:23:28.145Z,63.2
2019-01-14T06:24:17.946Z,63.2
2019-01-14T06:25:08.329Z,63.2
2019-01-14T06:25:58.373Z,63.2
2019-01-14T06:26:48.090Z,63.1
2019-01-14T06:27:38.461Z,63.1
2019-01-14T06:28:27.970Z,63.1
2019-01-14T06:29:18.252Z,63.1
2019-01-14T06:30:08.575Z,63.1
2019-01-14T06:30:58.073Z,63.1
2019-01-14T06:31:48.423Z,63.1
2019-01-14T06:32:38.496Z,63.1
2019-01-14T06:33:28.821Z,63.1
2019-01-14T06:34:18.913Z,63.1
2019-01-14T06:35:09.150Z,63.1
2019-01-14T06:36:00.728Z,63.1
2019-01-14T06:36:49.050Z,63.1
2019-01-14T06:37:39.558Z,63
2019-01-14T06:38:29.198Z,63
2019-01-14T06:39:19.197Z,63
2019-01-14T06:40:09.470Z,63
2019-01-14T06:40:59.309Z,63
2019-01-14T06:41:49.835Z,62.9
2019-01-14T06:42:39.417Z,62.9
2019-01-14T06:43:29.945Z,62.9
2019-01-14T06:44:20.077Z,62.9
2019-01-14T06:45:10.137Z,62.9
2019-01-14T06:46:00.127Z,62.9
2019-01-14T06:46:49.697Z,62.9
2019-01-14T06:47:39.964Z,62.9
2019-01-14T06:48:31.009Z,62.9
2019-01-14T06:49:19.870Z,62.9
2019-01-14T06:50:09.645Z,62.9
2019-01-14T06:50:59.979Z,62.9
2019-01-14T06:51:49.761Z,62.9
2019-01-14T06:52:39.814Z,62.8
2019-01-14T06:53:30.162Z,62.9
2019-01-14T06:54:19.949Z,62.8
2019-01-14T06:55:09.994Z,62.8
2019-01-14T06:56:00.316Z,62.8
2019-01-14T06:56:50.378Z,62.8
2019-01-14T06:57:40.451Z,62.8
2019-01-14T06:58:30.479Z,62.8
2019-01-14T06:59:20.546Z,62.8
2019-01-14T07:00:10.066Z,62.8
2019-01-14T07:01:00.690Z,62.8
2019-01-14T07:01:50.706Z,62.8
2019-01-14T07:02:40.250Z,62.8
2019-01-14T07:03:30.553Z,62.7
2019-01-14T07:04:20.898Z,62.8
2019-01-14T07:06:46.980Z,62.7
2019-01-14T07:07:36.557Z,62.7
2019-01-14T07:08:26.812Z,62.7
2019-01-14T07:09:17.150Z,62.6
2019-01-14T07:10:06.929Z,62.7
2019-01-14T07:10:56.697Z,62.6
2019-01-14T07:11:47.312Z,62.6
2019-01-14T07:12:37.364Z,62.6
2019-01-14T07:13:27.414Z,62.6
2019-01-14T07:14:17.482Z,62.6
2019-01-14T07:15:07.251Z,62.6
2019-01-14T07:15:57.596Z,62.6
2019-01-14T07:16:47.439Z,62.6
2019-01-14T07:17:37.704Z,62.6
2019-01-14T07:18:27.748Z,62.6
2019-01-14T07:19:17.831Z,62.6
2019-01-14T07:20:07.873Z,62.5
2019-01-14T07:20:57.936Z,62.5
2019-01-14T07:21:47.699Z,62.5
2019-01-14T07:22:38.043Z,62.5
2019-01-14T07:23:28.033Z,62.5
2019-01-14T07:24:18.369Z,62.4
2019-01-14T07:25:08.681Z,62.5
2019-01-14T07:25:58.736Z,62.4
2019-01-14T07:26:48.806Z,62.4
2019-01-14T07:27:38.384Z,62.4
2019-01-14T07:28:28.911Z,62.4
2019-01-14T07:29:18.510Z,62.4
2019-01-14T07:30:08.268Z,62.4
2019-01-14T07:30:59.081Z,62.4
2019-01-14T07:31:48.650Z,62.4
2019-01-14T07:32:38.973Z,62.4
2019-01-14T07:33:28.970Z,62.4
2019-01-14T07:34:19.314Z,62.4
2019-01-14T07:35:09.096Z,62.4
2019-01-14T07:35:59.428Z,62.3
2019-01-14T07:36:49.465Z,62.3
2019-01-14T07:37:39.230Z,62.3
2019-01-14T07:38:29.573Z,62.3
2019-01-14T07:39:19.078Z,62.3
2019-01-14T07:40:09.715Z,62.3
2019-01-14T07:40:59.465Z,62.3
2019-01-14T07:41:49.804Z,62.3
2019-01-14T07:42:39.860Z,62.3
2019-01-14T07:43:29.924Z,62.3
2019-01-14T07:44:20.025Z,62.3
2019-01-14T07:45:09.791Z,62.3
2019-01-14T07:45:59.882Z,62.3
2019-01-14T07:46:50.157Z,62.2
2019-01-14T07:47:39.709Z,62.2
2019-01-14T07:48:30.250Z,62.2
2019-01-14T07:49:20.304Z,62.2
2019-01-14T07:50:10.370Z,62.2
2019-01-14T07:51:00.139Z,62.2
2019-01-14T07:51:50.242Z,62.2
2019-01-14T07:52:40.264Z,62.1
2019-01-14T07:53:30.029Z,62.1
2019-01-14T07:54:20.664Z,62.1
2019-01-14T07:55:10.791Z,62.1
2019-01-14T07:56:00.527Z,62.1
2019-01-14T07:56:50.265Z,62.1
2019-01-14T07:57:40.881Z,62.1
2019-01-14T07:58:30.923Z,62.1
2019-01-14T07:59:20.992Z,62.1
2019-01-14T08:00:10.819Z,62.1
2019-01-14T08:01:00.814Z,62.1
2019-01-14T08:01:50.871Z,62.1
2019-01-14T08:02:41.222Z,62.1
2019-01-14T08:03:31.281Z,62
2019-01-14T08:04:21.328Z,62
2019-01-14T08:05:10.830Z,62
2019-01-14T08:06:01.483Z,62
2019-01-14T08:06:51.496Z,62
2019-01-14T08:07:41.595Z,62
2019-01-14T08:08:31.598Z,61.9
2019-01-14T08:09:21.716Z,61.9
2019-01-14T08:10:11.706Z,61.9
2019-01-14T08:11:01.793Z,61.9
2019-01-14T08:11:51.823Z,61.9
2019-01-14T08:12:41.938Z,61.9
2019-01-14T08:13:31.640Z,61.9
2019-01-14T08:14:21.744Z,61.9
2019-01-14T08:15:11.500Z,61.9
2019-01-14T08:16:01.880Z,61.9
2019-01-14T08:16:52.215Z,61.9
2019-01-14T08:17:42.208Z,61.9
2019-01-14T08:18:32.261Z,61.8
2019-01-14T08:19:21.799Z,61.8
2019-01-14T08:20:12.379Z,61.8
2019-01-14T08:21:02.445Z,61.8
2019-01-14T08:21:52.212Z,61.8
2019-01-14T08:22:42.572Z,61.8
2019-01-14T08:23:32.590Z,61.8
2019-01-14T08:24:22.707Z,61.8
2019-01-14T08:25:12.712Z,61.8
2019-01-14T08:26:02.829Z,61.8
2019-01-14T08:26:52.809Z,61.8
2019-01-14T08:27:42.124Z,61.8
2019-01-14T08:28:32.951Z,61.8
2019-01-14T08:29:22.997Z,61.7
2019-01-14T08:30:13.112Z,61.7
2019-01-14T08:31:03.362Z,61.7
2019-01-14T08:31:53.160Z,61.7
2019-01-14T08:32:42.743Z,61.7
2019-01-14T08:33:33.307Z,61.6
2019-01-14T08:34:23.339Z,61.7
2019-01-14T08:35:13.394Z,61.6
2019-01-14T08:36:02.931Z,61.6
2019-01-14T08:37:00.559Z,61.6
2019-01-14T08:37:43.586Z,61.6
2019-01-14T08:38:33.608Z,61.6
2019-01-14T08:39:23.451Z,61.6
2019-01-14T08:40:13.179Z,61.6
2019-01-14T08:41:03.498Z,61.6
2019-01-14T08:41:53.561Z,61.6
2019-01-14T08:42:43.896Z,61.6
2019-01-14T08:43:33.968Z,61.6
2019-01-14T08:44:24.004Z,61.5
2019-01-14T08:45:13.803Z,61.5
2019-01-14T08:46:04.149Z,61.5
2019-01-14T08:46:54.231Z,61.5
2019-01-14T08:47:44.240Z,61.5
2019-01-14T08:49:46.697Z,61.4
2019-01-14T08:49:58.180Z,61.4
2019-01-14T08:50:48.673Z,61.4
2019-01-14T08:51:38.456Z,61.4
2019-01-14T08:52:27.351Z,61.4
2019-01-14T08:53:18.845Z,61.4
2019-01-14T08:54:08.152Z,61.4
2019-01-14T08:54:58.485Z,61.4
2019-01-14T08:55:48.535Z,61.4
2019-01-14T08:56:38.026Z,61.4
2019-01-14T08:57:28.642Z,61.4
2019-01-14T08:58:18.697Z,61.4
2019-01-14T08:59:08.484Z,61.4
2019-01-14T08:59:59.335Z,61.3
2019-01-14T09:00:48.588Z,61.3
2019-01-14T09:01:38.643Z,61.3
2019-01-14T09:02:29.176Z,61.3
2019-01-14T09:03:19.019Z,61.3
2019-01-14T09:04:09.084Z,61.3
2019-01-14T09:04:59.138Z,61.3
2019-01-14T09:05:49.239Z,61.3
2019-01-14T09:06:39.247Z,61.3
2019-01-14T09:07:29.042Z,61.3
2019-01-14T09:08:18.829Z,61.3
2019-01-14T09:09:09.414Z,61.3
2019-01-14T09:09:59.534Z,61.3
2019-01-14T09:10:49.524Z,61.2
2019-01-14T09:11:39.589Z,61.2
2019-01-14T09:12:29.374Z,61.2
2019-01-14T09:13:19.421Z,61.2
2019-01-14T09:14:09.749Z,61.2
2019-01-14T09:14:59.807Z,61.1
2019-01-14T09:15:50.851Z,61.1
2019-01-14T09:16:39.936Z,61.1
2019-01-14T09:17:29.689Z,61.1
2019-01-14T09:18:19.464Z,61.1
2019-01-14T09:19:10.099Z,61.1
2019-01-14T09:20:00.815Z,61.1
2019-01-14T09:20:49.928Z,61.1
2019-01-14T09:21:40.265Z,61.1
2019-01-14T09:22:29.763Z,61.1
2019-01-14T09:23:20.853Z,61.1
2019-01-14T09:24:10.520Z,61.1
2019-01-14T09:25:01.009Z,61.1
2019-01-14T09:25:57.228Z,61
2019-01-14T09:26:41.188Z,61
2019-01-14T09:27:30.656Z,61
2019-01-14T09:28:19.872Z,61
2019-01-14T09:29:10.753Z,60.9
2019-01-14T09:30:00.633Z,60.9
2019-01-14T09:30:50.608Z,60.9
2019-01-14T09:31:41.140Z,60.9
2019-01-14T09:32:30.985Z,60.9
2019-01-14T09:33:21.324Z,60.9
2019-01-14T09:34:11.028Z,60.9
2019-01-14T09:35:01.723Z,60.9
2019-01-14T09:35:51.747Z,60.9
2019-01-14T09:36:41.468Z,60.9
2019-01-14T09:37:31.323Z,60.9
2019-01-14T09:38:21.142Z,60.9
2019-01-14T09:39:11.445Z,60.8
2019-01-14T09:40:01.748Z,60.8
2019-01-14T09:40:52.089Z,60.8
2019-01-14T09:41:41.807Z,60.8
2019-01-14T09:42:31.848Z,60.8
2019-01-14T09:43:22.192Z,60.8
2019-01-14T09:44:11.980Z,60.8
2019-01-14T09:45:02.320Z,60.8
2019-01-14T09:45:51.809Z,60.8
2019-01-14T09:46:42.152Z,60.8
2019-01-14T09:47:32.462Z,60.8
2019-01-14T09:48:22.531Z,60.8
2019-01-14T09:49:12.587Z,60.8
2019-01-14T09:50:02.428Z,60.7
2019-01-14T09:50:52.427Z,60.7
2019-01-14T09:51:42.769Z,60.7
2019-01-14T09:52:32.822Z,60.7
2019-01-14T09:53:22.892Z,60.7
2019-01-14T09:54:12.934Z,60.7
2019-01-14T09:55:08.142Z,60.6
2019-01-14T09:55:52.769Z,60.6
2019-01-14T09:56:43.096Z,60.6
2019-01-14T09:57:32.876Z,60.6
2019-01-14T09:58:23.218Z,60.6
2019-01-14T09:59:13.249Z,60.6
2019-01-14T10:00:03.396Z,60.6
2019-01-14T10:00:53.374Z,60.6
2019-01-14T10:01:43.144Z,60.6
2019-01-14T10:02:33.036Z,60.6
2019-01-14T10:03:22.783Z,60.6
2019-01-14T10:04:12.816Z,60.5
2019-01-14T10:05:03.448Z,60.5
2019-01-14T10:07:47.303Z,60.5
2019-01-14T10:08:44.081Z,60.5
2019-01-14T10:09:27.130Z,60.4
2019-01-14T10:10:17.501Z,60.4
2019-01-14T10:11:07.233Z,60.4
2019-01-14T10:11:57.295Z,60.4
2019-01-14T10:12:47.362Z,60.4
2019-01-14T10:13:37.671Z,60.4
2019-01-14T10:14:27.461Z,60.4
2019-01-14T10:15:17.521Z,60.4
2019-01-14T10:16:07.853Z,60.4
2019-01-14T10:16:57.905Z,60.4
2019-01-14T10:17:47.725Z,60.4
2019-01-14T10:18:38.073Z,60.4
2019-01-14T10:19:28.083Z,60.3
2019-01-14T10:20:17.847Z,60.4
2019-01-14T10:21:07.913Z,60.3
2019-01-14T10:21:58.240Z,60.3
2019-01-14T10:22:48.350Z,60.3
2019-01-14T10:23:38.353Z,60.3
2019-01-14T10:24:28.480Z,60.3
2019-01-14T10:25:18.462Z,60.3
2019-01-14T10:26:08.520Z,60.3
2019-01-14T10:26:58.295Z,60.3
2019-01-14T10:27:48.649Z,60.3
2019-01-14T10:28:38.689Z,60.2
2019-01-14T10:29:28.744Z,60.2
2019-01-14T10:30:18.578Z,60.2
2019-01-14T10:31:08.870Z,60.2
2019-01-14T10:31:58.630Z,60.2
2019-01-14T10:32:48.979Z,60.2
2019-01-14T10:33:39.047Z,60.2
2019-01-14T10:34:28.650Z,60.1
2019-01-14T10:35:18.395Z,60.1
2019-01-14T10:36:09.196Z,60.1
2019-01-14T10:36:59.240Z,60.1
2019-01-14T10:37:49.050Z,60.1
2019-01-14T10:38:39.088Z,60.1
2019-01-14T10:39:28.880Z,60.1
2019-01-14T10:40:19.832Z,60.1
2019-01-14T10:41:09.315Z,60.1
2019-01-14T10:41:59.030Z,60.1
2019-01-14T10:42:49.357Z,60
2019-01-14T10:43:39.422Z,60.1
2019-01-14T10:44:29.472Z,60.1
2019-01-14T10:45:19.540Z,60
2019-01-14T10:46:09.852Z,60
2019-01-14T10:46:59.987Z,60
2019-01-14T10:47:49.985Z,60
2019-01-14T10:48:40.104Z,59.9
2019-01-14T10:49:29.832Z,59.9
2019-01-14T10:50:19.630Z,59.9
2019-01-14T10:51:09.928Z,59.9
2019-01-14T10:51:59.712Z,59.9
2019-01-14T10:52:50.102Z,59.9
2019-01-14T10:53:40.370Z,59.9
2019-01-14T10:54:30.427Z,59.9
2019-01-14T10:55:20.501Z,59.9
2019-01-14T10:56:10.539Z,59.9
2019-01-14T10:57:00.654Z,59.9
2019-01-14T10:57:50.104Z,59.9
2019-01-14T10:58:40.714Z,59.8
2019-01-14T10:59:30.009Z,59.8
2019-01-14T11:00:20.835Z,59.8
2019-01-14T11:01:10.936Z,59.8
2019-01-14T11:02:00.657Z,59.8
2019-01-14T11:02:51.851Z,59.8
2019-01-14T11:03:41.048Z,59.8
2019-01-14T11:04:31.099Z,59.8
2019-01-14T11:05:21.164Z,59.8
2019-01-14T11:06:11.229Z,59.8
2019-01-14T11:07:00.786Z,59.8
2019-01-14T11:07:51.392Z,59.8
2019-01-14T11:08:41.386Z,59.8
2019-01-14T11:09:31.441Z,59.7
2019-01-14T11:10:21.490Z,59.7
2019-01-14T11:11:11.278Z,59.7
2019-01-14T11:12:01.335Z,59.7
2019-01-14T11:12:51.706Z,59.7
2019-01-14T11:13:41.153Z,59.7
2019-01-14T11:14:31.769Z,59.6
2019-01-14T11:15:21.838Z,59.6
2019-01-14T11:16:11.881Z,59.6
2019-01-14T11:17:01.938Z,59.6
2019-01-14T11:17:51.994Z,59.6
2019-01-14T11:18:42.051Z,59.6
2019-01-14T11:19:32.098Z,59.6
2019-01-14T11:20:21.968Z,59.6
2019-01-14T11:21:16.345Z,59.6
2019-01-14T11:22:01.992Z,59.6
2019-01-14T11:22:52.063Z,59.6
2019-01-14T11:23:42.395Z,59.5
2019-01-14T11:24:32.442Z,59.5
2019-01-14T11:25:22.227Z,59.5
2019-01-14T11:26:12.270Z,59.5
2019-01-14T11:27:02.602Z,59.5
2019-01-14T11:27:52.399Z,59.5
2019-01-14T11:28:42.495Z,59.5
2019-01-14T11:29:32.767Z,59.5
2019-01-14T11:30:22.879Z,59.4
2019-01-14T11:31:12.895Z,59.4
2019-01-14T11:32:02.947Z,59.4
2019-01-14T11:32:53.016Z,59.4
2019-01-14T11:33:42.917Z,59.4
2019-01-14T11:34:33.104Z,59.4
2019-01-14T11:35:23.174Z,59.4
2019-01-14T11:36:13.292Z,59.4
2019-01-14T11:37:03.017Z,59.4
2019-01-14T11:37:53.349Z,59.4
2019-01-14T11:38:43.392Z,59.3
2019-01-14T11:39:33.454Z,59.3
2019-01-14T11:40:23.244Z,59.3
2019-01-14T11:41:13.637Z,59.3
2019-01-14T11:42:03.333Z,59.3
2019-01-14T11:42:53.682Z,59.3
2019-01-14T11:43:43.737Z,59.3
2019-01-14T11:44:33.784Z,59.3
2019-01-14T11:45:23.843Z,59.3
2019-01-14T11:46:13.899Z,59.3
2019-01-14T11:47:03.480Z,59.3
2019-01-14T11:47:53.728Z,59.3
2019-01-14T11:48:43.793Z,59.2
2019-01-14T11:49:34.129Z,59.2
2019-01-14T11:50:23.933Z,59.2
2019-01-14T11:51:14.236Z,59.2
2019-01-14T11:52:04.046Z,59.1
2019-01-14T11:52:54.369Z,59.2
2019-01-14T11:53:44.123Z,59.1
2019-01-14T11:54:34.186Z,59.1
2019-01-14T11:55:23.958Z,59.1
2019-01-14T11:56:14.015Z,59.1
2019-01-14T11:57:04.695Z,59.1
2019-01-14T11:57:54.694Z,59.1
2019-01-14T11:58:44.451Z,59.1
2019-01-14T11:59:34.903Z,59.1
2019-01-14T12:00:24.573Z,59.1
2019-01-14T12:01:14.915Z,59.1
2019-01-14T12:02:04.970Z,59.1
2019-01-14T12:02:55.087Z,59.1
2019-01-14T12:03:44.813Z,59
2019-01-14T12:04:34.860Z,59
2019-01-14T12:05:25.237Z,59
2019-01-14T12:07:47.340Z,59
2019-01-14T12:08:51.602Z,58.9
2019-01-14T12:09:27.057Z,58.9
2019-01-14T12:10:16.500Z,58.9
2019-01-14T12:11:07.900Z,58.9
2019-01-14T12:11:56.616Z,58.9
2019-01-14T12:12:46.747Z,58.9
2019-01-14T12:13:37.329Z,58.9
2019-01-14T12:14:27.332Z,58.9
2019-01-14T12:15:17.394Z,58.9
2019-01-14T12:16:06.921Z,58.8
2019-01-14T12:16:57.513Z,58.8
2019-01-14T12:17:47.002Z,58.9
2019-01-14T12:18:37.625Z,58.8
2019-01-14T12:19:27.967Z,58.8
2019-01-14T12:20:17.461Z,58.8
2019-01-14T12:21:07.809Z,58.8
2019-01-14T12:21:57.570Z,58.8
2019-01-14T12:22:47.960Z,58.8
2019-01-14T12:23:37.676Z,58.8
2019-01-14T12:24:28.297Z,58.8
2019-01-14T12:25:17.822Z,58.8
2019-01-14T12:26:08.119Z,58.8
2019-01-14T12:26:58.189Z,58.8
2019-01-14T12:27:47.987Z,58.8
2019-01-14T12:28:38.290Z,58.7
2019-01-14T12:29:28.089Z,58.7
2019-01-14T12:30:18.687Z,58.7
2019-01-14T12:31:08.748Z,58.7
2019-01-14T12:31:58.511Z,58.7
2019-01-14T12:32:48.286Z,58.6
2019-01-14T12:33:38.348Z,58.6
2019-01-14T12:34:28.688Z,58.6
2019-01-14T12:35:17.988Z,58.6
2019-01-14T12:36:08.532Z,58.6
2019-01-14T12:42:48.975Z,58.5